sensor_id;sensor_type;location;lat;lon;timestamp;P1;durP1;ratioP1;P2;durP2;ratioP2
46751;SDS011;32497;48.936;9.270;2023-06-22T00:02:18;6.65;;;5.13;;
46751;SDS011;32497;48.936;9.270;2023-06-22T00:07:19;8.68;;;5.65;;
46751;SDS011;32497;48.936;9.270;2023-06-22T00:12:22;7.32;;;5.50;;
46751;SDS011;32497;48.936;9.270;2023-06-22T00:17:23;8.60;;;5.38;;
46751;SDS011;32497;48.936;9.270;2023-06-22T00:22:24;6.90;;;5.25;;
46751;SDS011;32497;48.936;9.270;2023-06-22T00:27:26;8.32;;;5.43;;
46751;SDS011;32497;48.936;9.270;2023-06-22T00:32:27;8.52;;;5.55;;
46751;SDS011;32497;48.936;9.270;2023-06-22T00:37:29;5.78;;;4.95;;
46751;SDS011;32497;48.936;9.270;2023-06-22T00:42:31;7.78;;;4.97;;
46751;SDS011;32497;48.936;9.270;2023-06-22T00:47:32;8.88;;;6.30;;
46751;SDS011;32497;48.936;9.270;2023-06-22T00:52:35;8.60;;;5.88;;
46751;SDS011;32497;48.936;9.270;2023-06-22T00:57:38;8.20;;;5.32;;
46751;SDS011;32497;48.936;9.270;2023-06-22T01:02:39;7.35;;;5.40;;
46751;SDS011;32497;48.936;9.270;2023-06-22T01:07:41;8.48;;;5.47;;
46751;SDS011;32497;48.936;9.270;2023-06-22T01:12:51;7.97;;;5.13;;
46751;SDS011;32497;48.936;9.270;2023-06-22T01:17:54;11.07;;;5.38;;
46751;SDS011;32497;48.936;9.270;2023-06-22T01:23:02;7.57;;;5.22;;
46751;SDS011;32497;48.936;9.270;2023-06-22T01:28:16;10.52;;;5.60;;
46751;SDS011;32497;48.936;9.270;2023-06-22T01:33:25;8.93;;;5.70;;
46751;SDS011;32497;48.936;9.270;2023-06-22T01:38:26;9.43;;;5.60;;
46751;SDS011;32497;48.936;9.270;2023-06-22T01:43:29;7.55;;;5.63;;
46751;SDS011;32497;48.936;9.270;2023-06-22T01:48:32;8.45;;;5.68;;
46751;SDS011;32497;48.936;9.270;2023-06-22T01:53:36;9.88;;;5.60;;
46751;SDS011;32497;48.936;9.270;2023-06-22T01:58:38;8.88;;;5.22;;
46751;SDS011;32497;48.936;9.270;2023-06-22T02:03:50;7.25;;;5.10;;
46751;SDS011;32497;48.936;9.270;2023-06-22T02:08:59;9.63;;;4.95;;
46751;SDS011;32497;48.936;9.270;2023-06-22T02:14:03;7.40;;;4.95;;
46751;SDS011;32497;48.936;9.270;2023-06-22T02:19:07;8.55;;;5.10;;
46751;SDS011;32497;48.936;9.270;2023-06-22T02:24:08;6.45;;;5.32;;
46751;SDS011;32497;48.936;9.270;2023-06-22T02:29:09;8.40;;;5.70;;
46751;SDS011;32497;48.936;9.270;2023-06-22T02:34:12;7.40;;;5.60;;
46751;SDS011;32497;48.936;9.270;2023-06-22T02:39:13;9.90;;;5.25;;
46751;SDS011;32497;48.936;9.270;2023-06-22T02:44:14;8.18;;;5.65;;
46751;SDS011;32497;48.936;9.270;2023-06-22T02:49:17;7.53;;;4.78;;
46751;SDS011;32497;48.936;9.270;2023-06-22T02:54:18;7.82;;;5.55;;
46751;SDS011;32497;48.936;9.270;2023-06-22T02:59:20;8.60;;;5.57;;
46751;SDS011;32497;48.936;9.270;2023-06-22T03:04:24;7.95;;;5.80;;
46751;SDS011;32497;48.936;9.270;2023-06-22T03:09:25;10.30;;;5.90;;
46751;SDS011;32497;48.936;9.270;2023-06-22T03:14:26;7.63;;;5.95;;
46751;SDS011;32497;48.936;9.270;2023-06-22T03:19:29;9.00;;;6.40;;
46751;SDS011;32497;48.936;9.270;2023-06-22T03:24:30;7.85;;;6.25;;
46751;SDS011;32497;48.936;9.270;2023-06-22T03:29:31;11.00;;;6.05;;
46751;SDS011;32497;48.936;9.270;2023-06-22T03:34:34;7.78;;;5.20;;
46751;SDS011;32497;48.936;9.270;2023-06-22T03:39:35;9.65;;;5.70;;
46751;SDS011;32497;48.936;9.270;2023-06-22T03:44:37;8.48;;;5.95;;
46751;SDS011;32497;48.936;9.270;2023-06-22T03:49:41;8.98;;;6.32;;
46751;SDS011;32497;48.936;9.270;2023-06-22T03:54:42;8.68;;;6.15;;
46751;SDS011;32497;48.936;9.270;2023-06-22T03:59:43;7.82;;;5.95;;
46751;SDS011;32497;48.936;9.270;2023-06-22T04:04:46;10.27;;;6.00;;
46751;SDS011;32497;48.936;9.270;2023-06-22T04:09:47;12.55;;;5.97;;
46751;SDS011;32497;48.936;9.270;2023-06-22T04:14:48;11.45;;;6.20;;
46751;SDS011;32497;48.936;9.270;2023-06-22T04:19:50;9.93;;;6.50;;
46751;SDS011;32497;48.936;9.270;2023-06-22T04:24:51;11.70;;;6.57;;
46751;SDS011;32497;48.936;9.270;2023-06-22T04:29:52;9.43;;;6.53;;
46751;SDS011;32497;48.936;9.270;2023-06-22T04:34:55;11.50;;;6.63;;
46751;SDS011;32497;48.936;9.270;2023-06-22T04:39:56;11.50;;;7.00;;
46751;SDS011;32497;48.936;9.270;2023-06-22T04:44:57;9.50;;;6.45;;
46751;SDS011;32497;48.936;9.270;2023-06-22T04:50:00;9.50;;;6.80;;
46751;SDS011;32497;48.936;9.270;2023-06-22T04:55:01;9.52;;;6.50;;
46751;SDS011;32497;48.936;9.270;2023-06-22T05:00:02;9.88;;;6.57;;
46751;SDS011;32497;48.936;9.270;2023-06-22T05:05:05;8.90;;;6.35;;
46751;SDS011;32497;48.936;9.270;2023-06-22T05:10:07;7.63;;;6.15;;
46751;SDS011;32497;48.936;9.270;2023-06-22T05:15:08;9.27;;;6.70;;
46751;SDS011;32497;48.936;9.270;2023-06-22T05:20:11;10.63;;;6.22;;
46751;SDS011;32497;48.936;9.270;2023-06-22T05:25:13;8.70;;;6.20;;
46751;SDS011;32497;48.936;9.270;2023-06-22T05:30:14;9.35;;;6.20;;
46751;SDS011;32497;48.936;9.270;2023-06-22T05:35:17;9.00;;;6.38;;
46751;SDS011;32497;48.936;9.270;2023-06-22T05:40:18;8.95;;;6.53;;
46751;SDS011;32497;48.936;9.270;2023-06-22T05:45:19;11.82;;;6.07;;
46751;SDS011;32497;48.936;9.270;2023-06-22T05:50:21;8.52;;;5.55;;
46751;SDS011;32497;48.936;9.270;2023-06-22T05:55:22;6.97;;;5.50;;
46751;SDS011;32497;48.936;9.270;2023-06-22T06:00:23;9.52;;;5.20;;
46751;SDS011;32497;48.936;9.270;2023-06-22T06:05:26;6.75;;;5.03;;
46751;SDS011;32497;48.936;9.270;2023-06-22T06:10:27;8.98;;;5.15;;
46751;SDS011;32497;48.936;9.270;2023-06-22T06:15:28;7.03;;;5.35;;
46751;SDS011;32497;48.936;9.270;2023-06-22T06:20:31;6.32;;;4.82;;
46751;SDS011;32497;48.936;9.270;2023-06-22T06:25:32;7.35;;;5.03;;
46751;SDS011;32497;48.936;9.270;2023-06-22T06:30:33;6.90;;;4.88;;
46751;SDS011;32497;48.936;9.270;2023-06-22T06:35:35;7.47;;;4.38;;
46751;SDS011;32497;48.936;9.270;2023-06-22T06:40:36;4.95;;;4.18;;
46751;SDS011;32497;48.936;9.270;2023-06-22T06:45:38;4.88;;;4.38;;
46751;SDS011;32497;48.936;9.270;2023-06-22T06:50:40;6.88;;;4.68;;
46751;SDS011;32497;48.936;9.270;2023-06-22T06:55:41;5.38;;;4.70;;
46751;SDS011;32497;48.936;9.270;2023-06-22T07:00:42;5.72;;;5.00;;
46751;SDS011;32497;48.936;9.270;2023-06-22T07:05:45;6.63;;;4.85;;
46751;SDS011;32497;48.936;9.270;2023-06-22T07:10:46;5.20;;;4.68;;
46751;SDS011;32497;48.936;9.270;2023-06-22T07:15:47;5.22;;;4.47;;
46751;SDS011;32497;48.936;9.270;2023-06-22T07:20:49;6.38;;;4.70;;
46751;SDS011;32497;48.936;9.270;2023-06-22T07:25:50;8.07;;;4.55;;
46751;SDS011;32497;48.936;9.270;2023-06-22T07:30:51;6.28;;;4.50;;
46751;SDS011;32497;48.936;9.270;2023-06-22T07:35:54;6.50;;;4.80;;
46751;SDS011;32497;48.936;9.270;2023-06-22T07:40:55;5.47;;;4.95;;
46751;SDS011;32497;48.936;9.270;2023-06-22T07:45:56;4.70;;;4.30;;
46751;SDS011;32497;48.936;9.270;2023-06-22T07:50:59;5.13;;;4.63;;
46751;SDS011;32497;48.936;9.270;2023-06-22T07:56:00;5.88;;;4.63;;
46751;SDS011;32497;48.936;9.270;2023-06-22T08:01:01;6.38;;;5.20;;
46751;SDS011;32497;48.936;9.270;2023-06-22T08:06:04;5.05;;;4.55;;
46751;SDS011;32497;48.936;9.270;2023-06-22T08:11:05;5.25;;;4.75;;
46751;SDS011;32497;48.936;9.270;2023-06-22T08:16:06;6.25;;;4.90;;
46751;SDS011;32497;48.936;9.270;2023-06-22T08:21:09;4.85;;;4.45;;
46751;SDS011;32497;48.936;9.270;2023-06-22T08:26:10;5.13;;;4.60;;
46751;SDS011;32497;48.936;9.270;2023-06-22T08:31:11;6.65;;;4.70;;
46751;SDS011;32497;48.936;9.270;2023-06-22T08:36:13;5.20;;;4.70;;
46751;SDS011;32497;48.936;9.270;2023-06-22T08:41:14;6.28;;;4.57;;
46751;SDS011;32497;48.936;9.270;2023-06-22T08:46:16;6.35;;;4.00;;
46751;SDS011;32497;48.936;9.270;2023-06-22T08:51:18;4.32;;;3.92;;
46751;SDS011;32497;48.936;9.270;2023-06-22T08:56:19;5.55;;;3.85;;
46751;SDS011;32497;48.936;9.270;2023-06-22T09:01:20;4.85;;;3.97;;
46751;SDS011;32497;48.936;9.270;2023-06-22T09:06:23;5.95;;;4.10;;
46751;SDS011;32497;48.936;9.270;2023-06-22T09:11:24;6.78;;;3.67;;
46751;SDS011;32497;48.936;9.270;2023-06-22T09:16:25;6.50;;;3.80;;
46751;SDS011;32497;48.936;9.270;2023-06-22T09:21:28;4.43;;;3.80;;
46751;SDS011;32497;48.936;9.270;2023-06-22T09:26:29;5.68;;;3.95;;
46751;SDS011;32497;48.936;9.270;2023-06-22T09:31:30;5.40;;;4.43;;
46751;SDS011;32497;48.936;9.270;2023-06-22T09:36:32;6.03;;;4.53;;
46751;SDS011;32497;48.936;9.270;2023-06-22T09:41:33;7.47;;;4.07;;
46751;SDS011;32497;48.936;9.270;2023-06-22T09:46:34;4.53;;;3.78;;
46751;SDS011;32497;48.936;9.270;2023-06-22T09:51:37;6.88;;;4.18;;
46751;SDS011;32497;48.936;9.270;2023-06-22T09:56:38;5.20;;;4.13;;
46751;SDS011;32497;48.936;9.270;2023-06-22T10:01:39;5.18;;;4.22;;
46751;SDS011;32497;48.936;9.270;2023-06-22T10:06:42;7.57;;;5.03;;
46751;SDS011;32497;48.936;9.270;2023-06-22T10:11:43;6.53;;;4.50;;
46751;SDS011;32497;48.936;9.270;2023-06-22T10:16:44;6.47;;;4.25;;
46751;SDS011;32497;48.936;9.270;2023-06-22T10:21:46;4.90;;;4.20;;
46751;SDS011;32497;48.936;9.270;2023-06-22T10:26:47;5.57;;;4.88;;
46751;SDS011;32497;48.936;9.270;2023-06-22T10:31:48;4.85;;;4.00;;
46751;SDS011;32497;48.936;9.270;2023-06-22T10:36:51;7.13;;;4.32;;
46751;SDS011;32497;48.936;9.270;2023-06-22T10:41:52;5.13;;;4.10;;
46751;SDS011;32497;48.936;9.270;2023-06-22T10:46:53;8.43;;;4.65;;
46751;SDS011;32497;48.936;9.270;2023-06-22T10:51:55;9.00;;;4.78;;
46751;SDS011;32497;48.936;9.270;2023-06-22T10:56:57;7.55;;;4.50;;
46751;SDS011;32497;48.936;9.270;2023-06-22T11:01:58;5.70;;;4.20;;
46751;SDS011;32497;48.936;9.270;2023-06-22T11:07:00;4.82;;;4.05;;
46751;SDS011;32497;48.936;9.270;2023-06-22T11:12:01;7.20;;;4.38;;
46751;SDS011;32497;48.936;9.270;2023-06-22T11:17:03;4.80;;;4.22;;
46751;SDS011;32497;48.936;9.270;2023-06-22T11:22:06;4.45;;;4.05;;
46751;SDS011;32497;48.936;9.270;2023-06-22T11:27:07;6.30;;;3.92;;
46751;SDS011;32497;48.936;9.270;2023-06-22T11:32:08;6.47;;;4.40;;
46751;SDS011;32497;48.936;9.270;2023-06-22T11:37:11;5.43;;;4.15;;
46751;SDS011;32497;48.936;9.270;2023-06-22T11:42:12;8.63;;;4.15;;
46751;SDS011;32497;48.936;9.270;2023-06-22T11:47:13;7.55;;;4.30;;
46751;SDS011;32497;48.936;9.270;2023-06-22T11:52:15;6.72;;;4.53;;
46751;SDS011;32497;48.936;9.270;2023-06-22T11:57:16;6.63;;;4.32;;
46751;SDS011;32497;48.936;9.270;2023-06-22T12:02:17;5.43;;;4.28;;
46751;SDS011;32497;48.936;9.270;2023-06-22T12:07:20;7.32;;;4.63;;
46751;SDS011;32497;48.936;9.270;2023-06-22T12:12:21;6.53;;;4.60;;
46751;SDS011;32497;48.936;9.270;2023-06-22T12:17:22;7.05;;;4.50;;
46751;SDS011;32497;48.936;9.270;2023-06-22T12:22:25;7.80;;;4.38;;
46751;SDS011;32497;48.936;9.270;2023-06-22T12:27:26;5.00;;;4.10;;
46751;SDS011;32497;48.936;9.270;2023-06-22T12:32:27;4.88;;;4.35;;
46751;SDS011;32497;48.936;9.270;2023-06-22T12:37:29;5.70;;;3.92;;
46751;SDS011;32497;48.936;9.270;2023-06-22T12:42:30;8.13;;;4.43;;
46751;SDS011;32497;48.936;9.270;2023-06-22T12:47:32;5.85;;;4.00;;
46751;SDS011;32497;48.936;9.270;2023-06-22T12:52:36;6.65;;;4.10;;
46751;SDS011;32497;48.936;9.270;2023-06-22T12:57:37;6.32;;;4.25;;
46751;SDS011;32497;48.936;9.270;2023-06-22T13:02:38;9.95;;;4.80;;
46751;SDS011;32497;48.936;9.270;2023-06-22T13:07:41;8.27;;;3.88;;
46751;SDS011;32497;48.936;9.270;2023-06-22T13:12:42;4.30;;;3.90;;
46751;SDS011;32497;48.936;9.270;2023-06-22T13:17:43;7.80;;;4.35;;
46751;SDS011;32497;48.936;9.270;2023-06-22T13:22:45;8.23;;;3.97;;
46751;SDS011;32497;48.936;9.270;2023-06-22T13:27:46;6.22;;;3.83;;
46751;SDS011;32497;48.936;9.270;2023-06-22T13:32:47;7.68;;;4.35;;
46751;SDS011;32497;48.936;9.270;2023-06-22T13:37:50;7.55;;;3.88;;
46751;SDS011;32497;48.936;9.270;2023-06-22T13:42:51;7.38;;;3.78;;
46751;SDS011;32497;48.936;9.270;2023-06-22T13:47:52;7.60;;;4.45;;
46751;SDS011;32497;48.936;9.270;2023-06-22T13:52:55;8.32;;;4.70;;
46751;SDS011;32497;48.936;9.270;2023-06-22T13:57:56;7.07;;;4.43;;
46751;SDS011;32497;48.936;9.270;2023-06-22T14:02:57;8.05;;;4.60;;
46751;SDS011;32497;48.936;9.270;2023-06-22T14:07:59;7.47;;;4.78;;
46751;SDS011;32497;48.936;9.270;2023-06-22T14:13:01;6.95;;;5.03;;
46751;SDS011;32497;48.936;9.270;2023-06-22T14:18:02;8.02;;;5.05;;
46751;SDS011;32497;48.936;9.270;2023-06-22T14:23:04;11.27;;;5.38;;
46751;SDS011;32497;48.936;9.270;2023-06-22T14:28:05;9.95;;;5.00;;
46751;SDS011;32497;48.936;9.270;2023-06-22T14:33:07;8.05;;;4.70;;
46751;SDS011;32497;48.936;9.270;2023-06-22T14:38:09;6.60;;;4.95;;
46751;SDS011;32497;48.936;9.270;2023-06-22T14:43:10;8.85;;;5.18;;
46751;SDS011;32497;48.936;9.270;2023-06-22T14:48:11;9.73;;;5.45;;
46751;SDS011;32497;48.936;9.270;2023-06-22T14:53:14;8.90;;;5.50;;
46751;SDS011;32497;48.936;9.270;2023-06-22T14:58:15;9.23;;;4.10;;
46751;SDS011;32497;48.936;9.270;2023-06-22T15:03:16;6.93;;;3.67;;
46751;SDS011;32497;48.936;9.270;2023-06-22T15:08:18;7.78;;;3.38;;
46751;SDS011;32497;48.936;9.270;2023-06-22T15:13:20;8.98;;;4.05;;
46751;SDS011;32497;48.936;9.270;2023-06-22T15:18:21;6.78;;;2.65;;
46751;SDS011;32497;48.936;9.270;2023-06-22T15:23:24;6.82;;;2.63;;
46751;SDS011;32497;48.936;9.270;2023-06-22T15:28:25;9.57;;;2.60;;
46751;SDS011;32497;48.936;9.270;2023-06-22T15:33:26;5.05;;;2.83;;
46751;SDS011;32497;48.936;9.270;2023-06-22T15:38:28;7.43;;;2.03;;
46751;SDS011;32497;48.936;9.270;2023-06-22T15:43:30;6.80;;;2.08;;
46751;SDS011;32497;48.936;9.270;2023-06-22T15:48:31;5.50;;;2.42;;
46751;SDS011;32497;48.936;9.270;2023-06-22T15:53:33;6.53;;;3.00;;
46751;SDS011;32497;48.936;9.270;2023-06-22T15:58:34;6.07;;;2.42;;
46751;SDS011;32497;48.936;9.270;2023-06-22T16:03:35;8.20;;;3.15;;
46751;SDS011;32497;48.936;9.270;2023-06-22T16:08:38;5.50;;;2.95;;
46751;SDS011;32497;48.936;9.270;2023-06-22T16:13:39;6.68;;;2.85;;
46751;SDS011;32497;48.936;9.270;2023-06-22T16:18:40;4.57;;;2.08;;
46751;SDS011;32497;48.936;9.270;2023-06-22T16:23:42;8.45;;;2.83;;
46751;SDS011;32497;48.936;9.270;2023-06-22T16:28:44;7.72;;;3.05;;
46751;SDS011;32497;48.936;9.270;2023-06-22T16:33:45;6.53;;;2.95;;
46751;SDS011;32497;48.936;9.270;2023-06-22T16:38:47;8.90;;;2.50;;
46751;SDS011;32497;48.936;9.270;2023-06-22T16:43:48;6.18;;;2.60;;
46751;SDS011;32497;48.936;9.270;2023-06-22T16:48:49;7.78;;;2.50;;
46751;SDS011;32497;48.936;9.270;2023-06-22T16:53:54;7.43;;;2.47;;
46751;SDS011;32497;48.936;9.270;2023-06-22T16:58:57;8.45;;;2.75;;
46751;SDS011;32497;48.936;9.270;2023-06-22T17:04:01;4.72;;;2.97;;
46751;SDS011;32497;48.936;9.270;2023-06-22T17:09:06;3.80;;;2.58;;
46751;SDS011;32497;48.936;9.270;2023-06-22T17:14:13;4.50;;;2.53;;
46751;SDS011;32497;48.936;9.270;2023-06-22T17:19:14;7.60;;;2.60;;
46751;SDS011;32497;48.936;9.270;2023-06-22T17:24:17;6.90;;;2.40;;
46751;SDS011;32497;48.936;9.270;2023-06-22T17:29:19;6.25;;;2.42;;
46751;SDS011;32497;48.936;9.270;2023-06-22T17:34:20;6.00;;;2.55;;
46751;SDS011;32497;48.936;9.270;2023-06-22T17:39:23;4.72;;;2.20;;
46751;SDS011;32497;48.936;9.270;2023-06-22T17:44:26;4.40;;;2.22;;
46751;SDS011;32497;48.936;9.270;2023-06-22T17:49:28;15.38;;;2.50;;
46751;SDS011;32497;48.936;9.270;2023-06-22T17:54:31;7.43;;;2.47;;
46751;SDS011;32497;48.936;9.270;2023-06-22T17:59:32;5.80;;;2.40;;
46751;SDS011;32497;48.936;9.270;2023-06-22T18:04:34;5.60;;;2.60;;
46751;SDS011;32497;48.936;9.270;2023-06-22T18:09:36;5.70;;;2.03;;
46751;SDS011;32497;48.936;9.270;2023-06-22T18:14:37;5.80;;;2.20;;
46751;SDS011;32497;48.936;9.270;2023-06-22T18:19:40;9.48;;;2.95;;
46751;SDS011;32497;48.936;9.270;2023-06-22T18:24:44;5.70;;;2.10;;
46751;SDS011;32497;48.936;9.270;2023-06-22T18:29:47;4.43;;;2.25;;
46751;SDS011;32497;48.936;9.270;2023-06-22T18:34:50;4.53;;;1.88;;
46751;SDS011;32497;48.936;9.270;2023-06-22T18:39:53;5.53;;;2.28;;
46751;SDS011;32497;48.936;9.270;2023-06-22T18:44:54;8.90;;;2.42;;
46751;SDS011;32497;48.936;9.270;2023-06-22T18:50:03;6.95;;;2.65;;
46751;SDS011;32497;48.936;9.270;2023-06-22T18:55:07;7.35;;;2.17;;
46751;SDS011;32497;48.936;9.270;2023-06-22T19:00:12;8.93;;;2.42;;
46751;SDS011;32497;48.936;9.270;2023-06-22T19:05:15;6.25;;;2.15;;
46751;SDS011;32497;48.936;9.270;2023-06-22T19:10:23;7.45;;;2.03;;
46751;SDS011;32497;48.936;9.270;2023-06-22T19:15:31;6.20;;;1.90;;
46751;SDS011;32497;48.936;9.270;2023-06-22T19:20:33;3.80;;;1.83;;
46751;SDS011;32497;48.936;9.270;2023-06-22T19:25:35;4.30;;;1.80;;
46751;SDS011;32497;48.936;9.270;2023-06-22T19:30:37;3.75;;;1.42;;
46751;SDS011;32497;48.936;9.270;2023-06-22T19:35:40;5.35;;;1.50;;
46751;SDS011;32497;48.936;9.270;2023-06-22T19:40:43;2.47;;;1.30;;
46751;SDS011;32497;48.936;9.270;2023-06-22T19:45:44;6.03;;;1.73;;
46751;SDS011;32497;48.936;9.270;2023-06-22T19:50:46;5.38;;;1.42;;
46751;SDS011;32497;48.936;9.270;2023-06-22T19:55:49;4.63;;;1.48;;
46751;SDS011;32497;48.936;9.270;2023-06-22T20:00:52;4.53;;;1.83;;
46751;SDS011;32497;48.936;9.270;2023-06-22T20:05:55;4.45;;;1.83;;
46751;SDS011;32497;48.936;9.270;2023-06-22T20:11:09;5.20;;;2.10;;
46751;SDS011;32497;48.936;9.270;2023-06-22T20:16:10;8.13;;;1.80;;
46751;SDS011;32497;48.936;9.270;2023-06-22T20:21:11;3.08;;;1.38;;
46751;SDS011;32497;48.936;9.270;2023-06-22T20:26:14;9.23;;;1.90;;
46751;SDS011;32497;48.936;9.270;2023-06-22T20:31:15;5.18;;;2.00;;
46751;SDS011;32497;48.936;9.270;2023-06-22T20:36:17;4.68;;;1.90;;
46751;SDS011;32497;48.936;9.270;2023-06-22T20:41:19;5.43;;;2.00;;
46751;SDS011;32497;48.936;9.270;2023-06-22T20:46:20;2.90;;;1.40;;
46751;SDS011;32497;48.936;9.270;2023-06-22T20:51:21;2.78;;;1.00;;
46751;SDS011;32497;48.936;9.270;2023-06-22T20:56:24;4.35;;;0.63;;
46751;SDS011;32497;48.936;9.270;2023-06-22T21:01:25;3.55;;;0.63;;
46751;SDS011;32497;48.936;9.270;2023-06-22T21:06:26;0.85;;;0.40;;
46751;SDS011;32497;48.936;9.270;2023-06-22T21:11:29;1.13;;;0.40;;
46751;SDS011;32497;48.936;9.270;2023-06-22T21:16:30;0.80;;;0.50;;
46751;SDS011;32497;48.936;9.270;2023-06-22T21:21:33;1.02;;;0.45;;
46751;SDS011;32497;48.936;9.270;2023-06-22T21:26:36;0.50;;;0.45;;
46751;SDS011;32497;48.936;9.270;2023-06-22T21:31:37;1.10;;;0.40;;
46751;SDS011;32497;48.936;9.270;2023-06-22T21:36:38;1.35;;;0.70;;
46751;SDS011;32497;48.936;9.270;2023-06-22T21:41:40;2.90;;;0.68;;
46751;SDS011;32497;48.936;9.270;2023-06-22T21:46:41;1.10;;;0.70;;
46751;SDS011;32497;48.936;9.270;2023-06-22T21:51:42;0.65;;;0.55;;
46751;SDS011;32497;48.936;9.270;2023-06-22T21:56:45;1.15;;;0.60;;
46751;SDS011;32497;48.936;9.270;2023-06-22T22:01:46;1.50;;;0.80;;
46751;SDS011;32497;48.936;9.270;2023-06-22T22:06:47;2.20;;;0.60;;
46751;SDS011;32497;48.936;9.270;2023-06-22T22:11:50;2.97;;;0.85;;
46751;SDS011;32497;48.936;9.270;2023-06-22T22:16:51;1.55;;;0.82;;
46751;SDS011;32497;48.936;9.270;2023-06-22T22:21:52;0.95;;;0.80;;
46751;SDS011;32497;48.936;9.270;2023-06-22T22:26:54;1.08;;;0.80;;
46751;SDS011;32497;48.936;9.270;2023-06-22T22:31:55;1.60;;;0.90;;
46751;SDS011;32497;48.936;9.270;2023-06-22T22:36:56;1.98;;;0.90;;
46751;SDS011;32497;48.936;9.270;2023-06-22T22:41:59;1.42;;;1.10;;
46751;SDS011;32497;48.936;9.270;2023-06-22T22:47:00;1.40;;;0.80;;
46751;SDS011;32497;48.936;9.270;2023-06-22T22:52:01;1.30;;;1.00;;
46751;SDS011;32497;48.936;9.270;2023-06-22T22:57:04;1.42;;;1.02;;
46751;SDS011;32497;48.936;9.270;2023-06-22T23:02:05;1.92;;;1.13;;
46751;SDS011;32497;48.936;9.270;2023-06-22T23:07:06;1.90;;;1.27;;
46751;SDS011;32497;48.936;9.270;2023-06-22T23:12:09;1.98;;;1.33;;
46751;SDS011;32497;48.936;9.270;2023-06-22T23:17:10;1.75;;;1.25;;
46751;SDS011;32497;48.936;9.270;2023-06-22T23:22:11;2.10;;;1.40;;
46751;SDS011;32497;48.936;9.270;2023-06-22T23:27:14;2.38;;;1.40;;
46751;SDS011;32497;48.936;9.270;2023-06-22T23:32:15;2.25;;;1.58;;
46751;SDS011;32497;48.936;9.270;2023-06-22T23:37:16;2.08;;;1.52;;
46751;SDS011;32497;48.936;9.270;2023-06-22T23:42:19;3.05;;;1.48;;
46751;SDS011;32497;48.936;9.270;2023-06-22T23:47:20;1.95;;;1.77;;
46751;SDS011;32497;48.936;9.270;2023-06-22T23:52:21;4.40;;;1.95;;
46751;SDS011;32497;48.936;9.270;2023-06-22T23:57:23;2.50;;;2.17;;
